Ladoga, Indiana
Current Conditions -  °F | °C
As of 10:35 AM on Monday 24 Nov 2014 (Local Time) from K4I7 Reporting Station
Overcast Overcast  
Wind Chill: 27°   Ceiling: 1800
Heat Index: 37°   Visibility: 10mi
Dew Point: 32°   Wind: 21mph
Humidity: 81%   Direction: 260°W
Pressure: 29.48"   Gusts: 33mph
Location:  39.91°N, 86.8°W
Report Text: K4I7 241535Z AUTO 26018G29KT 10SM OVC018 03/00 A2948 RMK AO2
Loading
Personal Weather Stations






























Interactive Weather Map New forecast layout! Learn more

10-Day Weather Forecast

Advertisements
Track Severe Weather on mobile